createdAt,value
2022-10-03T00:00:11.609Z,55.01
2022-10-03T00:05:34.116Z,55.75
2022-10-03T00:10:47.689Z,55.73
2022-10-03T00:15:55.326Z,56.12
2022-10-03T00:21:17.578Z,56.35
2022-10-03T00:26:30.830Z,56.20
2022-10-03T00:31:44.227Z,55.22
2022-10-03T00:36:50.907Z,55.94
2022-10-03T00:42:19.698Z,56.38
2022-10-03T00:47:52.273Z,56.81
2022-10-03T00:53:09.682Z,56.47
2022-10-03T00:58:33.598Z,56.80
2022-10-03T01:03:47.450Z,57.22
2022-10-03T01:09:22.117Z,56.74
2022-10-03T01:14:34.155Z,56.50
2022-10-03T01:19:57.830Z,57.06
2022-10-03T01:25:00.585Z,57.04
2022-10-03T01:30:21.306Z,57.48
2022-10-03T01:35:31.068Z,57.27
2022-10-03T01:40:33.370Z,57.49
2022-10-03T01:45:47.689Z,57.36
2022-10-03T01:50:52.708Z,57.77
2022-10-03T01:56:00.607Z,58.29
2022-10-03T02:01:09.015Z,58.22
2022-10-03T02:06:18.914Z,57.67
2022-10-03T02:11:29.474Z,57.22
2022-10-03T02:16:37.831Z,56.97
2022-10-03T02:21:48.917Z,58.26
2022-10-03T02:27:18.230Z,58.25
2022-10-03T02:32:49.432Z,58.00
2022-10-03T02:38:14.004Z,58.51
2022-10-03T02:43:45.947Z,58.05
2022-10-03T02:49:29.243Z,58.13
2022-10-03T02:54:46.170Z,58.73
2022-10-03T03:00:12.175Z,59.65
2022-10-03T03:05:31.200Z,60.17
2022-10-03T03:11:03.287Z,60.21
2022-10-03T03:16:44.257Z,59.84
2022-10-03T03:21:54.959Z,58.62
2022-10-03T03:27:28.284Z,58.41
2022-10-03T03:32:34.656Z,59.08
2022-10-03T03:37:41.959Z,58.99
2022-10-03T03:43:11.084Z,58.60
2022-10-03T03:48:29.561Z,57.96
2022-10-03T03:53:51.213Z,58.23
2022-10-03T03:59:00.891Z,58.63
2022-10-03T04:04:14.196Z,58.61
2022-10-03T04:09:51.283Z,58.74
2022-10-03T04:15:21.166Z,59.70
2022-10-03T04:20:49.833Z,60.06
2022-10-03T04:26:05.092Z,60.60
2022-10-03T04:31:22.111Z,60.97
2022-10-03T04:36:47.232Z,60.23
2022-10-03T04:41:53.166Z,60.26
2022-10-03T04:46:57.614Z,61.00
2022-10-03T04:52:02.457Z,60.04
2022-10-03T04:57:07.516Z,59.99
2022-10-03T05:02:19.481Z,61.88
2022-10-03T05:07:28.368Z,61.68
2022-10-03T05:12:35.576Z,62.99
2022-10-03T05:17:46.639Z,65.01
2022-10-03T05:22:54.105Z,65.64
2022-10-03T05:28:00.832Z,65.62
2022-10-03T05:33:09.054Z,65.77
2022-10-03T05:38:34.414Z,65.91
2022-10-03T05:43:58.820Z,67.35
2022-10-03T05:49:11.831Z,68.01
2022-10-03T05:54:46.530Z,68.15
2022-10-03T06:00:10.834Z,70.40
2022-10-03T06:05:31.204Z,71.10
2022-10-03T06:10:59.719Z,71.29
2022-10-03T06:16:03.081Z,70.75
2022-10-03T06:21:27.493Z,71.45
2022-10-03T06:27:06.456Z,72.20
2022-10-03T06:32:25.861Z,70.49
2022-10-03T06:38:00.883Z,70.96
2022-10-03T06:43:32.770Z,70.89
2022-10-03T06:49:17.075Z,72.68
2022-10-03T06:55:09.194Z,74.12
2022-10-03T07:00:20.415Z,74.19
2022-10-03T07:05:55.480Z,73.33
2022-10-03T07:11:14.621Z,74.19
2022-10-03T07:16:50.366Z,74.39
2022-10-03T07:22:39.133Z,73.74
2022-10-03T07:27:53.777Z,75.61
2022-10-03T07:33:39.193Z,77.02
2022-10-03T07:39:00.360Z,78.42
2022-10-03T07:44:29.763Z,78.96
2022-10-03T07:50:05.733Z,79.43
2022-10-03T07:55:26.961Z,78.73
2022-10-03T08:00:27.526Z,79.61
2022-10-03T08:05:50.905Z,80.06
2022-10-03T08:11:12.843Z,81.77
2022-10-03T08:16:28.899Z,81.12
2022-10-03T08:21:39.252Z,80.92
2022-10-03T08:27:04.145Z,79.08
2022-10-03T08:32:33.760Z,77.81
2022-10-03T08:38:00.026Z,78.33
2022-10-03T08:43:31.064Z,78.55
2022-10-03T08:48:59.786Z,76.57
2022-10-03T08:54:25.737Z,76.46
2022-10-03T08:59:52.298Z,75.95
2022-10-03T09:05:29.410Z,77.87
2022-10-03T09:11:15.110Z,75.09
2022-10-03T09:16:42.504Z,74.89
2022-10-03T09:22:17.634Z,73.33
2022-10-03T09:27:31.640Z,71.12
2022-10-03T09:33:26.820Z,71.06
2022-10-03T09:38:58.213Z,69.85
2022-10-03T09:44:22.112Z,67.55
2022-10-03T09:49:45.310Z,67.56
2022-10-03T09:55:02.720Z,67.90
2022-10-03T10:00:17.008Z,67.18
2022-10-03T10:05:52.091Z,68.12
2022-10-03T10:11:18.197Z,69.82
2022-10-03T10:16:45.858Z,69.94
2022-10-03T10:22:08.251Z,69.95
2022-10-03T10:27:43.923Z,70.12
2022-10-03T10:33:14.161Z,73.38
2022-10-03T10:38:28.410Z,73.35
2022-10-03T10:44:10.019Z,74.65
2022-10-03T10:49:57.241Z,72.20
2022-10-03T10:55:58.198Z,71.35
2022-10-03T11:01:23.271Z,72.38
2022-10-03T11:07:11.926Z,71.03
2022-10-03T11:12:45.546Z,69.29
2022-10-03T11:18:25.925Z,68.98
2022-10-03T11:24:15.216Z,69.46
2022-10-03T11:30:06.463Z,67.34
2022-10-03T11:35:45.614Z,66.67
2022-10-03T11:40:58.560Z,66.98
2022-10-03T11:46:17.318Z,67.05
2022-10-03T11:51:21.151Z,66.27
2022-10-03T11:56:28.756Z,66.01
2022-10-03T12:01:45.109Z,64.17
2022-10-03T12:07:18.928Z,60.12
2022-10-03T12:12:28.260Z,58.64
2022-10-03T12:17:34.151Z,57.70
2022-10-03T12:22:46.781Z,56.01
2022-10-03T12:27:58.738Z,55.12
2022-10-03T12:33:14.946Z,52.49
2022-10-03T12:38:35.270Z,51.71
2022-10-03T12:43:48.811Z,48.05
2022-10-03T12:48:59.251Z,46.66
2022-10-03T12:54:09.029Z,46.58
2022-10-03T12:59:16.931Z,45.83
2022-10-03T13:04:31.170Z,47.64
2022-10-03T13:09:47.046Z,47.16
2022-10-03T13:15:43.064Z,46.69
2022-10-03T13:20:56.951Z,46.63
2022-10-03T13:26:10.278Z,45.21
2022-10-03T13:31:18.920Z,44.02
2022-10-03T13:36:24.702Z,38.99
2022-10-03T13:41:32.143Z,36.33
2022-10-03T13:46:45.175Z,35.03
2022-10-03T13:51:53.142Z,33.14
2022-10-03T13:56:59.326Z,32.63
2022-10-03T14:02:09.034Z,30.56
2022-10-03T14:07:19.612Z,27.76
2022-10-03T14:12:50.993Z,30.50
2022-10-03T14:17:58.368Z,31.46
2022-10-03T14:23:14.367Z,32.83
2022-10-03T14:28:21.903Z,34.12
2022-10-03T14:33:30.046Z,35.52
2022-10-03T14:39:05.288Z,36.36
2022-10-03T14:44:13.200Z,38.14
2022-10-03T14:49:48.495Z,39.99
2022-10-03T14:54:44.081Z,40.36
2022-10-03T14:59:43.003Z,41.24
2022-10-03T15:04:42.482Z,41.25
2022-10-03T15:09:50.499Z,42.02
2022-10-03T15:14:58.322Z,43.19
2022-10-03T15:19:59.906Z,43.48
2022-10-03T15:25:07.026Z,43.25
2022-10-03T15:30:07.754Z,43.22
2022-10-03T15:35:08.054Z,43.58
2022-10-03T15:40:20.611Z,45.04
2022-10-03T15:45:26.287Z,46.32
2022-10-03T15:50:27.279Z,46.03
2022-10-03T15:55:34.691Z,45.95
2022-10-03T16:00:37.995Z,45.77
2022-10-03T16:05:38.386Z,44.45
2022-10-03T16:10:43.542Z,44.15
2022-10-03T16:16:04.094Z,44.29
2022-10-03T16:21:05.735Z,44.66
2022-10-03T16:26:08.426Z,45.10
2022-10-03T16:31:14.343Z,45.40
2022-10-03T16:36:19.371Z,45.86
2022-10-03T16:41:24.567Z,45.90
2022-10-03T16:46:25.694Z,46.29
2022-10-03T16:51:28.883Z,45.26
2022-10-03T16:56:34.588Z,45.89
2022-10-03T17:01:38.898Z,45.53
2022-10-03T17:06:40.916Z,44.60
2022-10-03T17:11:43.884Z,44.92
2022-10-03T17:16:51.835Z,45.23
2022-10-03T17:21:55.305Z,46.17
2022-10-03T17:26:58.066Z,46.11
2022-10-03T17:32:03.148Z,46.47
2022-10-03T17:37:16.361Z,47.25
2022-10-03T17:42:32.565Z,47.63
2022-10-03T17:47:40.408Z,48.00
2022-10-03T17:52:43.001Z,49.94
2022-10-03T17:57:49.455Z,49.69
2022-10-03T18:02:56.983Z,50.01
2022-10-03T18:07:58.295Z,51.12
2022-10-03T18:13:02.267Z,50.98
2022-10-03T18:18:17.967Z,51.51
2022-10-03T18:23:50.090Z,52.15
2022-10-03T18:28:51.701Z,52.11
2022-10-03T18:33:56.417Z,52.30
2022-10-03T18:39:02.021Z,52.10
2022-10-03T18:44:04.550Z,52.36
2022-10-03T18:49:32.026Z,52.98
2022-10-03T18:54:39.576Z,53.36
2022-10-03T18:59:53.745Z,53.75
2022-10-03T19:04:58.171Z,53.74
2022-10-03T19:10:28.988Z,53.54
2022-10-03T19:15:44.030Z,54.15
2022-10-03T19:20:47.648Z,54.66
2022-10-03T19:25:52.578Z,54.54
2022-10-03T19:31:02.338Z,55.63
2022-10-03T19:36:05.494Z,55.82
2022-10-03T19:41:14.743Z,56.63
2022-10-03T19:46:27.087Z,57.55
2022-10-03T19:51:27.565Z,57.85
2022-10-03T19:56:28.611Z,57.61
2022-10-03T20:01:29.270Z,57.94
2022-10-03T20:06:30.817Z,57.95
2022-10-03T20:11:42.306Z,57.79
2022-10-03T20:16:47.962Z,57.39
2022-10-03T20:21:53.419Z,57.95
2022-10-03T20:27:04.768Z,58.95
2022-10-03T20:32:06.631Z,59.55
2022-10-03T20:37:25.239Z,59.36
2022-10-03T20:42:30.928Z,59.06
2022-10-03T20:47:58.135Z,58.42
2022-10-03T20:53:00.143Z,59.04
2022-10-03T20:58:11.332Z,59.26
2022-10-03T21:03:20.425Z,59.82
2022-10-03T21:08:22.868Z,60.20
2022-10-03T21:13:25.151Z,60.81
2022-10-03T21:18:27.920Z,60.98
2022-10-03T21:23:28.148Z,61.64
2022-10-03T21:28:30.793Z,63.06
2022-10-03T21:33:35.695Z,63.16
2022-10-03T21:38:36.163Z,63.22
2022-10-03T21:43:44.565Z,62.75
2022-10-03T21:48:58.064Z,62.53
2022-10-03T21:54:25.394Z,62.98
2022-10-03T21:59:44.576Z,62.61
2022-10-03T22:04:49.370Z,63.10
2022-10-03T22:09:50.082Z,63.59
2022-10-03T22:14:56.698Z,63.27
2022-10-03T22:20:12.636Z,63.08
2022-10-03T22:25:26.501Z,62.56
2022-10-03T22:30:25.301Z,63.02
2022-10-03T22:35:42.167Z,63.55
2022-10-03T22:40:42.336Z,63.56
2022-10-03T22:45:45.423Z,63.60
2022-10-03T22:50:46.407Z,64.98
2022-10-03T22:55:49.013Z,65.26
2022-10-03T23:00:53.253Z,65.83
2022-10-03T23:06:16.732Z,64.71
2022-10-03T23:11:22.364Z,64.52
2022-10-03T23:16:44.441Z,64.58
2022-10-03T23:21:49.034Z,64.19
2022-10-03T23:27:14.720Z,64.13
2022-10-03T23:32:13.480Z,64.30
2022-10-03T23:37:43.581Z,65.55
2022-10-03T23:42:44.518Z,65.04
2022-10-03T23:47:52.967Z,64.87
2022-10-03T23:52:56.420Z,66.04
2022-10-03T23:57:55.741Z,65.48
